createdAt,value
2022-09-24T00:02:30.727Z,75.85
2022-09-24T00:05:40.169Z,75.61
2022-09-24T00:08:42.316Z,76.30
2022-09-24T00:11:45.938Z,76.66
2022-09-24T00:14:47.827Z,76.24
2022-09-24T00:17:49.580Z,76.45
2022-09-24T00:20:51.402Z,76.87
2022-09-24T00:23:56.195Z,76.97
2022-09-24T00:26:58.640Z,76.49
2022-09-24T00:30:00.414Z,76.23
2022-09-24T00:33:03.422Z,76.22
2022-09-24T00:36:05.865Z,77.04
2022-09-24T00:39:07.863Z,77.11
2022-09-24T00:42:10.380Z,77.42
2022-09-24T00:45:12.196Z,77.71
2022-09-24T00:48:14.540Z,77.77
2022-09-24T00:51:20.205Z,78.20
2022-09-24T00:54:28.906Z,78.31
2022-09-24T00:57:31.482Z,77.87
2022-09-24T01:00:34.156Z,78.03
2022-09-24T01:03:41.297Z,78.42
2022-09-24T01:06:43.649Z,77.91
2022-09-24T01:09:47.867Z,77.04
2022-09-24T01:12:59.706Z,77.66
2022-09-24T01:16:10.594Z,77.78
2022-09-24T01:19:45.282Z,77.99
2022-09-24T01:23:18.233Z,77.76
2022-09-24T01:26:48.018Z,77.70
2022-09-24T01:29:53.715Z,77.48
2022-09-24T01:32:58.532Z,77.14
2022-09-24T01:36:06.917Z,77.33
2022-09-24T01:39:09.332Z,77.74
2022-09-24T01:42:12.411Z,78.66
2022-09-24T01:45:14.828Z,78.21
2022-09-24T01:48:21.276Z,78.28
2022-09-24T01:51:34.787Z,79.20
2022-09-24T01:54:42.955Z,78.88
2022-09-24T01:57:57.590Z,78.92
2022-09-24T02:01:13.119Z,79.74
2022-09-24T02:04:18.761Z,79.46
2022-09-24T02:07:25.287Z,79.53
2022-09-24T02:10:31.075Z,80.41
2022-09-24T02:13:47.542Z,79.71
2022-09-24T02:16:50.117Z,80.05
2022-09-24T02:19:53.179Z,80.06
2022-09-24T02:22:57.674Z,79.82
2022-09-24T02:26:02.166Z,79.26
2022-09-24T02:29:06.009Z,80.70
2022-09-24T02:32:09.555Z,79.43
2022-09-24T02:35:13.013Z,78.82
2022-09-24T02:38:18.284Z,78.63
2022-09-24T02:41:24.181Z,78.90
2022-09-24T02:44:25.877Z,80.57
2022-09-24T02:47:29.202Z,80.01
2022-09-24T02:50:41.363Z,80.49
2022-09-24T02:53:43.260Z,80.07
2022-09-24T02:56:45.180Z,79.69
2022-09-24T02:59:47.482Z,79.65
2022-09-24T03:02:49.293Z,78.88
2022-09-24T03:05:53.315Z,79.41
2022-09-24T03:08:55.221Z,79.38
2022-09-24T03:12:00.682Z,79.26
2022-09-24T03:15:03.604Z,79.39
2022-09-24T03:18:15.612Z,79.98
2022-09-24T03:21:20.347Z,79.91
2022-09-24T03:24:22.453Z,79.85
2022-09-24T03:27:24.293Z,80.28
2022-09-24T03:30:44.643Z,80.02
2022-09-24T03:33:49.892Z,79.64
2022-09-24T03:36:51.787Z,80.05
2022-09-24T03:39:53.620Z,80.29
2022-09-24T03:42:56.053Z,79.79
2022-09-24T03:45:58.704Z,80.59
2022-09-24T03:49:00.601Z,81.03
2022-09-24T03:52:03.214Z,80.54
2022-09-24T03:55:09.222Z,81.34
2022-09-24T03:58:12.115Z,82.08
2022-09-24T04:01:14.784Z,81.63
2022-09-24T04:04:17.735Z,81.54
2022-09-24T04:07:19.630Z,81.78
2022-09-24T04:10:22.135Z,81.48
2022-09-24T04:13:24.197Z,81.49
2022-09-24T04:16:26.403Z,81.56
2022-09-24T04:19:29.627Z,81.37
2022-09-24T04:22:31.545Z,81.83
2022-09-24T04:25:36.909Z,81.48
2022-09-24T04:28:39.437Z,81.24
2022-09-24T04:31:41.418Z,81.05
2022-09-24T04:34:43.719Z,81.37
2022-09-24T04:37:46.586Z,81.62
2022-09-24T04:40:49.595Z,81.65
2022-09-24T04:43:51.528Z,81.63
2022-09-24T04:46:53.661Z,81.95
2022-09-24T04:49:55.933Z,81.89
2022-09-24T04:52:58.065Z,82.55
2022-09-24T04:56:00.414Z,82.17
2022-09-24T04:59:02.575Z,82.32
2022-09-24T05:02:09.648Z,81.17
2022-09-24T05:05:12.697Z,80.92
2022-09-24T05:08:15.822Z,80.80
2022-09-24T05:11:19.494Z,80.16
2022-09-24T05:14:21.206Z,80.30
2022-09-24T05:17:23.307Z,79.89
2022-09-24T05:20:25.877Z,80.11
2022-09-24T05:23:28.267Z,80.82
2022-09-24T05:26:48.812Z,80.82
2022-09-24T05:29:51.421Z,82.17
2022-09-24T05:32:53.673Z,80.76
2022-09-24T05:35:56.684Z,80.67
2022-09-24T05:38:59.238Z,80.56
2022-09-24T05:42:04.525Z,81.41
2022-09-24T05:45:07.263Z,80.02
2022-09-24T05:48:09.209Z,80.40
2022-09-24T05:51:11.469Z,81.48
2022-09-24T05:54:14.053Z,81.96
2022-09-24T05:57:16.828Z,81.63
2022-09-24T06:00:19.681Z,83.00
2022-09-24T06:03:21.749Z,81.86
2022-09-24T06:06:27.568Z,81.39
2022-09-24T06:09:29.453Z,81.96
2022-09-24T06:12:35.096Z,81.91
2022-09-24T06:15:38.717Z,81.92
2022-09-24T06:18:43.077Z,81.67
2022-09-24T06:21:45.370Z,81.66
2022-09-24T06:24:47.679Z,81.32
2022-09-24T06:28:02.747Z,81.42
2022-09-24T06:31:06.291Z,81.45
2022-09-24T06:34:09.246Z,80.29
2022-09-24T06:37:11.541Z,80.23
2022-09-24T06:40:14.939Z,77.37
2022-09-24T06:43:18.302Z,75.01
2022-09-24T06:46:20.577Z,74.06
2022-09-24T06:49:23.464Z,73.18
2022-09-24T06:52:25.576Z,73.52
2022-09-24T06:55:27.946Z,72.43
2022-09-24T06:58:30.197Z,72.94
2022-09-24T07:01:32.364Z,72.98
2022-09-24T07:04:37.538Z,73.27
2022-09-24T07:07:39.738Z,71.41
2022-09-24T07:10:44.005Z,72.33
2022-09-24T07:13:46.079Z,72.24
2022-09-24T07:16:49.349Z,72.46
2022-09-24T07:19:51.931Z,72.38
2022-09-24T07:22:55.473Z,71.70
2022-09-24T07:25:58.138Z,73.40
2022-09-24T07:29:00.042Z,73.25
2022-09-24T07:32:03.886Z,72.93
2022-09-24T07:35:06.788Z,72.47
2022-09-24T07:38:12.441Z,72.46
2022-09-24T07:41:14.750Z,70.10
2022-09-24T07:44:18.307Z,66.56
2022-09-24T07:47:20.112Z,65.59
2022-09-24T07:50:22.470Z,66.37
2022-09-24T07:53:24.680Z,64.21
2022-09-24T07:56:26.846Z,62.62
2022-09-24T07:59:30.802Z,63.04
2022-09-24T08:02:32.724Z,62.67
2022-09-24T08:05:35.725Z,61.94
2022-09-24T08:08:39.151Z,62.96
2022-09-24T08:11:41.481Z,61.56
2022-09-24T08:14:45.017Z,61.35
2022-09-24T08:17:46.833Z,61.92
2022-09-24T08:20:50.002Z,61.65
2022-09-24T08:23:52.269Z,62.81
2022-09-24T08:26:54.774Z,60.39
2022-09-24T08:29:58.135Z,60.14
2022-09-24T08:33:00.064Z,59.96
2022-09-24T08:36:07.816Z,59.75
2022-09-24T08:39:10.962Z,57.78
2022-09-24T08:42:34.388Z,58.74
2022-09-24T08:46:03.441Z,57.99
2022-09-24T08:49:07.036Z,58.55
2022-09-24T08:52:23.860Z,60.42
2022-09-24T08:55:38.807Z,59.20
2022-09-24T08:59:01.901Z,58.43
2022-09-24T09:02:42.248Z,58.41
2022-09-24T09:05:53.658Z,58.40
2022-09-24T09:09:09.871Z,58.32
2022-09-24T09:12:18.615Z,58.40
2022-09-24T09:15:26.123Z,58.26
2022-09-24T09:18:38.578Z,58.00
2022-09-24T09:21:43.536Z,59.48
2022-09-24T09:24:50.031Z,58.52
2022-09-24T09:28:05.244Z,57.59
2022-09-24T09:31:40.186Z,57.68
2022-09-24T09:34:55.442Z,58.24
2022-09-24T09:38:23.974Z,56.98
2022-09-24T09:41:38.076Z,58.47
2022-09-24T09:44:42.225Z,57.47
2022-09-24T09:47:50.989Z,56.54
2022-09-24T09:51:06.342Z,56.88
2022-09-24T09:54:09.315Z,55.50
2022-09-24T09:57:17.794Z,56.05
2022-09-24T10:00:38.284Z,52.53
2022-09-24T10:03:52.688Z,55.41
2022-09-24T10:07:05.420Z,55.48
2022-09-24T10:10:26.020Z,54.95
2022-09-24T10:13:28.102Z,55.51
2022-09-24T10:16:31.069Z,55.19
2022-09-24T10:19:36.438Z,55.08
2022-09-24T10:22:39.064Z,55.63
2022-09-24T10:25:41.752Z,55.30
2022-09-24T10:29:08.574Z,54.54
2022-09-24T10:32:18.764Z,54.64
2022-09-24T10:35:27.056Z,54.31
2022-09-24T10:38:30.157Z,54.91
2022-09-24T10:41:32.860Z,53.91
2022-09-24T10:44:39.154Z,53.93
2022-09-24T10:47:45.539Z,53.84
2022-09-24T10:51:12.373Z,51.89
2022-09-24T10:54:43.435Z,51.06
2022-09-24T10:58:06.809Z,53.35
2022-09-24T11:01:39.553Z,52.57
2022-09-24T11:04:55.063Z,52.63
2022-09-24T11:08:30.934Z,53.69
2022-09-24T11:11:37.133Z,54.50
2022-09-24T11:14:56.044Z,52.89
2022-09-24T11:18:16.475Z,51.72
2022-09-24T11:21:37.703Z,53.86
2022-09-24T11:25:09.376Z,53.58
2022-09-24T11:28:26.318Z,54.22
2022-09-24T11:31:41.893Z,52.98
2022-09-24T11:34:53.123Z,53.23
2022-09-24T11:38:19.783Z,52.81
2022-09-24T11:41:48.031Z,52.65
2022-09-24T11:45:00.385Z,53.06
2022-09-24T11:48:11.465Z,53.63
2022-09-24T11:51:39.407Z,51.88
2022-09-24T11:55:12.425Z,51.83
2022-09-24T11:58:24.493Z,51.32
2022-09-24T12:01:33.903Z,51.38
2022-09-24T12:04:51.311Z,49.32
2022-09-24T12:07:56.448Z,50.23
2022-09-24T12:11:04.120Z,50.10
2022-09-24T12:14:20.580Z,51.48
2022-09-24T12:17:32.357Z,51.23
2022-09-24T12:21:02.569Z,50.97
2022-09-24T12:24:11.696Z,50.91
2022-09-24T12:27:21.321Z,50.20
2022-09-24T12:31:03.120Z,49.69
2022-09-24T12:34:12.303Z,51.30
2022-09-24T12:37:17.798Z,50.76
2022-09-24T12:40:48.698Z,49.98
2022-09-24T12:44:18.331Z,50.40
2022-09-24T12:47:25.650Z,50.34
2022-09-24T12:50:31.251Z,50.27
2022-09-24T12:53:35.889Z,50.59
2022-09-24T12:56:38.548Z,49.64
2022-09-24T12:59:56.894Z,48.98
2022-09-24T13:03:01.442Z,50.07
2022-09-24T13:06:06.292Z,50.02
2022-09-24T13:09:46.912Z,49.66
2022-09-24T13:12:49.722Z,49.91
2022-09-24T13:16:06.425Z,50.47
2022-09-24T13:19:25.849Z,50.93
2022-09-24T13:22:34.797Z,51.18
2022-09-24T13:25:38.214Z,50.79
2022-09-24T13:28:51.450Z,50.56
2022-09-24T13:32:01.196Z,51.29
2022-09-24T13:35:08.194Z,51.60
2022-09-24T13:38:20.238Z,51.15
2022-09-24T13:41:40.993Z,50.49
2022-09-24T13:44:45.924Z,51.02
2022-09-24T13:47:52.234Z,50.73
2022-09-24T13:50:55.820Z,51.47
2022-09-24T13:54:19.758Z,50.46
2022-09-24T13:57:27.060Z,49.95
2022-09-24T14:00:32.875Z,50.68
2022-09-24T14:03:37.161Z,51.09
2022-09-24T14:06:42.052Z,51.23
2022-09-24T14:09:47.737Z,50.82
2022-09-24T14:13:12.785Z,50.10
2022-09-24T14:16:19.362Z,50.74
2022-09-24T14:19:22.717Z,52.47
2022-09-24T14:22:31.531Z,51.21
2022-09-24T14:25:36.663Z,51.44
2022-09-24T14:28:39.227Z,52.38
2022-09-24T14:31:51.316Z,53.27
2022-09-24T14:34:57.117Z,53.28
2022-09-24T14:38:12.155Z,50.87
2022-09-24T14:41:18.936Z,52.00
2022-09-24T14:44:23.859Z,51.93
2022-09-24T14:47:31.255Z,52.00
2022-09-24T14:50:38.725Z,51.72
2022-09-24T14:53:41.494Z,52.08
2022-09-24T14:56:43.802Z,52.37
2022-09-24T14:59:47.412Z,51.53
2022-09-24T15:02:52.677Z,53.40
2022-09-24T15:06:16.615Z,52.24
2022-09-24T15:09:31.957Z,52.79
2022-09-24T15:12:37.818Z,52.61
2022-09-24T15:15:40.172Z,52.96
2022-09-24T15:18:42.301Z,52.39
2022-09-24T15:21:45.563Z,53.95
2022-09-24T15:24:49.146Z,53.79
2022-09-24T15:27:54.799Z,53.77
2022-09-24T15:30:57.776Z,54.89
2022-09-24T15:33:59.958Z,55.08
2022-09-24T15:37:02.438Z,55.69
2022-09-24T15:40:13.129Z,55.44
2022-09-24T15:43:21.834Z,55.98
2022-09-24T15:46:26.774Z,56.46
2022-09-24T15:49:28.799Z,56.69
2022-09-24T15:52:33.818Z,57.06
2022-09-24T15:55:36.609Z,57.30
2022-09-24T15:58:39.005Z,56.52
2022-09-24T16:01:42.136Z,57.95
2022-09-24T16:04:44.519Z,58.25
2022-09-24T16:07:47.517Z,57.90
2022-09-24T16:10:50.079Z,59.13
2022-09-24T16:13:53.430Z,59.29
2022-09-24T16:16:56.208Z,59.79
2022-09-24T16:19:58.816Z,60.03
2022-09-24T16:23:01.416Z,60.50
2022-09-24T16:26:03.791Z,61.36
2022-09-24T16:29:07.250Z,61.95
2022-09-24T16:32:09.205Z,62.18
2022-09-24T16:35:14.167Z,62.95
2022-09-24T16:38:22.298Z,63.60
2022-09-24T16:41:25.967Z,63.84
2022-09-24T16:44:28.491Z,64.75
2022-09-24T16:47:34.650Z,64.58
2022-09-24T16:50:37.305Z,64.54
2022-09-24T16:53:41.429Z,64.88
2022-09-24T16:56:52.514Z,65.52
2022-09-24T16:59:54.513Z,65.07
2022-09-24T17:02:57.316Z,65.23
2022-09-24T17:05:59.551Z,65.52
2022-09-24T17:09:20.617Z,65.79
2022-09-24T17:12:22.837Z,66.18
2022-09-24T17:15:24.804Z,65.24
2022-09-24T17:18:27.884Z,65.68
2022-09-24T17:21:30.198Z,65.66
2022-09-24T17:24:33.567Z,66.12
2022-09-24T17:27:36.056Z,66.11
2022-09-24T17:30:39.299Z,67.28
2022-09-24T17:33:45.558Z,66.84
2022-09-24T17:36:48.310Z,66.61
2022-09-24T17:39:50.599Z,67.20
2022-09-24T17:42:53.244Z,67.49
2022-09-24T17:46:03.450Z,67.01
2022-09-24T17:49:06.430Z,67.11
2022-09-24T17:52:09.035Z,67.03
2022-09-24T17:55:14.614Z,66.56
2022-09-24T17:58:17.619Z,67.48
2022-09-24T18:01:25.264Z,66.99
2022-09-24T18:04:32.160Z,67.34
2022-09-24T18:07:34.753Z,68.06
2022-09-24T18:10:37.461Z,67.62
2022-09-24T18:13:39.937Z,67.10
2022-09-24T18:16:43.077Z,67.99
2022-09-24T18:19:46.039Z,67.15
2022-09-24T18:22:48.258Z,67.70
2022-09-24T18:25:53.582Z,68.05
2022-09-24T18:28:58.747Z,68.39
2022-09-24T18:32:02.252Z,68.11
2022-09-24T18:35:04.884Z,69.08
2022-09-24T18:38:09.239Z,68.72
2022-09-24T18:41:16.778Z,68.35
2022-09-24T18:44:20.119Z,68.58
2022-09-24T18:47:22.289Z,68.70
2022-09-24T18:50:26.673Z,69.54
2022-09-24T18:53:31.503Z,69.38
2022-09-24T18:56:34.218Z,69.40
2022-09-24T18:59:47.755Z,69.99
2022-09-24T19:02:50.093Z,69.33
2022-09-24T19:05:54.050Z,69.71
2022-09-24T19:08:56.520Z,69.96
2022-09-24T19:11:59.337Z,69.92
2022-09-24T19:15:02.023Z,71.03
2022-09-24T19:18:04.439Z,70.88
2022-09-24T19:21:08.645Z,70.80
2022-09-24T19:24:11.926Z,70.11
2022-09-24T19:27:14.505Z,70.51
2022-09-24T19:30:18.386Z,70.68
2022-09-24T19:33:21.502Z,70.35
2022-09-24T19:36:24.026Z,71.20
2022-09-24T19:39:27.092Z,70.44
2022-09-24T19:42:31.806Z,70.78
2022-09-24T19:45:34.099Z,71.61
2022-09-24T19:48:40.727Z,71.88
2022-09-24T19:51:43.703Z,70.45
2022-09-24T19:54:50.009Z,71.41
2022-09-24T19:57:53.054Z,71.69
2022-09-24T20:00:55.371Z,72.25
2022-09-24T20:03:59.556Z,72.72
2022-09-24T20:07:05.807Z,71.95
2022-09-24T20:10:10.498Z,72.38
2022-09-24T20:13:13.232Z,71.95
2022-09-24T20:16:19.898Z,71.11
2022-09-24T20:19:22.484Z,70.60
2022-09-24T20:22:26.631Z,70.45
2022-09-24T20:25:47.309Z,70.51
2022-09-24T20:28:49.997Z,69.89
2022-09-24T20:31:55.372Z,69.75
2022-09-24T20:35:01.513Z,69.42
2022-09-24T20:38:03.826Z,70.31
2022-09-24T20:41:16.699Z,71.01
2022-09-24T20:44:19.471Z,71.80
2022-09-24T20:47:22.134Z,71.22
2022-09-24T20:50:24.858Z,71.86
2022-09-24T20:53:29.206Z,71.89
2022-09-24T20:56:31.796Z,72.56
2022-09-24T20:59:34.121Z,72.16
2022-09-24T21:02:41.562Z,72.02
2022-09-24T21:05:45.087Z,72.53
2022-09-24T21:08:48.072Z,72.84
2022-09-24T21:11:50.672Z,73.15
2022-09-24T21:14:52.930Z,72.91
2022-09-24T21:18:21.171Z,72.71
2022-09-24T21:21:20.850Z,72.92
2022-09-24T21:24:26.326Z,73.32
2022-09-24T21:27:30.394Z,73.67
2022-09-24T21:30:32.274Z,73.49
2022-09-24T21:33:35.665Z,74.39
2022-09-24T21:36:44.549Z,74.25
2022-09-24T21:39:47.352Z,74.53
2022-09-24T21:42:50.177Z,74.38
2022-09-24T21:45:55.320Z,74.52
2022-09-24T21:48:57.456Z,73.80
2022-09-24T21:51:59.888Z,75.04
2022-09-24T21:55:01.733Z,75.42
2022-09-24T21:58:03.831Z,75.12
2022-09-24T22:01:28.466Z,75.29
2022-09-24T22:04:32.823Z,75.64
2022-09-24T22:07:35.102Z,75.48
2022-09-24T22:10:37.552Z,75.98
2022-09-24T22:13:40.559Z,75.88
2022-09-24T22:16:42.605Z,75.65
2022-09-24T22:19:44.747Z,75.48
2022-09-24T22:22:46.590Z,75.74
2022-09-24T22:25:55.401Z,75.57
2022-09-24T22:28:57.580Z,75.69
2022-09-24T22:31:59.770Z,75.45
2022-09-24T22:35:20.266Z,75.96
2022-09-24T22:38:23.611Z,75.87
2022-09-24T22:41:31.320Z,75.61
2022-09-24T22:44:33.670Z,76.21
2022-09-24T22:47:35.657Z,76.12
2022-09-24T22:50:37.584Z,75.95
2022-09-24T22:53:41.271Z,76.37
2022-09-24T22:56:43.261Z,76.57
2022-09-24T22:59:46.194Z,76.48
2022-09-24T23:02:48.123Z,76.00
2022-09-24T23:05:51.683Z,74.94
2022-09-24T23:08:55.083Z,75.19
2022-09-24T23:11:56.848Z,75.79
2022-09-24T23:14:59.973Z,75.75
2022-09-24T23:18:01.970Z,75.61
2022-09-24T23:21:08.262Z,75.30
2022-09-24T23:24:20.066Z,74.72
2022-09-24T23:27:22.589Z,74.70
2022-09-24T23:30:24.829Z,76.31
2022-09-24T23:33:26.836Z,78.27
2022-09-24T23:36:31.565Z,76.80
2022-09-24T23:39:33.902Z,77.30
2022-09-24T23:42:35.676Z,78.33
2022-09-24T23:45:37.931Z,77.11
2022-09-24T23:48:40.092Z,77.38
2022-09-24T23:51:42.563Z,78.31
2022-09-24T23:54:44.764Z,77.84
2022-09-24T23:57:46.584Z,78.54
